sensor_id;sensor_type;location;lat;lon;timestamp;P1;durP1;ratioP1;P2;durP2;ratioP2
62927;SDS011;51070;52.236;-0.892;2023-01-26T00:00:25;6.90;;;2.00;;
62927;SDS011;51070;52.236;-0.892;2023-01-26T00:02:51;6.90;;;2.10;;
62927;SDS011;51070;52.236;-0.892;2023-01-26T00:05:16;5.10;;;1.90;;
62927;SDS011;51070;52.236;-0.892;2023-01-26T00:07:42;4.00;;;1.60;;
62927;SDS011;51070;52.236;-0.892;2023-01-26T00:10:10;8.50;;;2.30;;
62927;SDS011;51070;52.236;-0.892;2023-01-26T00:12:36;4.70;;;1.70;;
62927;SDS011;51070;52.236;-0.892;2023-01-26T00:15:02;7.30;;;1.70;;
62927;SDS011;51070;52.236;-0.892;2023-01-26T00:17:28;5.40;;;2.20;;
62927;SDS011;51070;52.236;-0.892;2023-01-26T00:19:54;6.70;;;2.40;;
62927;SDS011;51070;52.236;-0.892;2023-01-26T00:22:21;4.10;;;2.10;;
62927;SDS011;51070;52.236;-0.892;2023-01-26T00:24:48;10.20;;;2.50;;
62927;SDS011;51070;52.236;-0.892;2023-01-26T00:27:14;9.00;;;1.90;;
62927;SDS011;51070;52.236;-0.892;2023-01-26T00:29:39;4.00;;;1.90;;
62927;SDS011;51070;52.236;-0.892;2023-01-26T00:32:04;7.50;;;2.00;;
62927;SDS011;51070;52.236;-0.892;2023-01-26T00:34:30;8.40;;;2.10;;
62927;SDS011;51070;52.236;-0.892;2023-01-26T00:36:55;6.00;;;1.80;;
62927;SDS011;51070;52.236;-0.892;2023-01-26T00:39:21;5.70;;;1.70;;
62927;SDS011;51070;52.236;-0.892;2023-01-26T00:41:46;5.80;;;1.70;;
62927;SDS011;51070;52.236;-0.892;2023-01-26T00:44:30;8.50;;;1.80;;
62927;SDS011;51070;52.236;-0.892;2023-01-26T00:46:56;5.90;;;1.70;;
62927;SDS011;51070;52.236;-0.892;2023-01-26T00:49:21;11.40;;;2.40;;
62927;SDS011;51070;52.236;-0.892;2023-01-26T00:51:47;6.30;;;1.80;;
62927;SDS011;51070;52.236;-0.892;2023-01-26T00:54:12;6.70;;;2.20;;
62927;SDS011;51070;52.236;-0.892;2023-01-26T00:56:38;5.20;;;1.80;;
62927;SDS011;51070;52.236;-0.892;2023-01-26T00:59:03;6.30;;;1.80;;
62927;SDS011;51070;52.236;-0.892;2023-01-26T01:01:30;4.60;;;1.50;;
62927;SDS011;51070;52.236;-0.892;2023-01-26T01:03:56;7.90;;;2.40;;
62927;SDS011;51070;52.236;-0.892;2023-01-26T01:06:21;7.40;;;1.60;;
62927;SDS011;51070;52.236;-0.892;2023-01-26T01:08:47;4.60;;;1.60;;
62927;SDS011;51070;52.236;-0.892;2023-01-26T01:11:12;5.70;;;1.20;;
62927;SDS011;51070;52.236;-0.892;2023-01-26T01:13:38;5.80;;;1.70;;
62927;SDS011;51070;52.236;-0.892;2023-01-26T01:16:05;4.70;;;1.40;;
62927;SDS011;51070;52.236;-0.892;2023-01-26T01:18:31;5.50;;;1.30;;
62927;SDS011;51070;52.236;-0.892;2023-01-26T01:20:56;5.10;;;1.80;;
62927;SDS011;51070;52.236;-0.892;2023-01-26T01:23:22;5.50;;;2.40;;
62927;SDS011;51070;52.236;-0.892;2023-01-26T01:25:55;7.90;;;1.80;;
62927;SDS011;51070;52.236;-0.892;2023-01-26T01:28:21;7.00;;;2.00;;
62927;SDS011;51070;52.236;-0.892;2023-01-26T01:30:47;7.40;;;2.40;;
62927;SDS011;51070;52.236;-0.892;2023-01-26T01:33:12;3.80;;;1.60;;
62927;SDS011;51070;52.236;-0.892;2023-01-26T01:35:37;7.20;;;2.10;;
62927;SDS011;51070;52.236;-0.892;2023-01-26T01:38:03;5.20;;;1.60;;
62927;SDS011;51070;52.236;-0.892;2023-01-26T01:40:28;5.00;;;1.70;;
62927;SDS011;51070;52.236;-0.892;2023-01-26T01:42:54;5.70;;;1.50;;
62927;SDS011;51070;52.236;-0.892;2023-01-26T01:47:51;4.40;;;1.50;;
62927;SDS011;51070;52.236;-0.892;2023-01-26T01:50:19;4.40;;;1.50;;
62927;SDS011;51070;52.236;-0.892;2023-01-26T01:52:45;7.20;;;1.80;;
62927;SDS011;51070;52.236;-0.892;2023-01-26T01:55:11;3.40;;;1.10;;
62927;SDS011;51070;52.236;-0.892;2023-01-26T01:57:40;6.60;;;1.70;;
62927;SDS011;51070;52.236;-0.892;2023-01-26T02:00:19;6.10;;;1.70;;
62927;SDS011;51070;52.236;-0.892;2023-01-26T02:02:54;4.30;;;1.50;;
62927;SDS011;51070;52.236;-0.892;2023-01-26T02:10:41;16.50;;;2.40;;
62927;SDS011;51070;52.236;-0.892;2023-01-26T02:13:10;5.40;;;1.90;;
62927;SDS011;51070;52.236;-0.892;2023-01-26T02:15:36;5.70;;;2.60;;
62927;SDS011;51070;52.236;-0.892;2023-01-26T02:18:02;4.40;;;1.60;;
62927;SDS011;51070;52.236;-0.892;2023-01-26T02:28:17;6.20;;;1.70;;
62927;SDS011;51070;52.236;-0.892;2023-01-26T02:30:44;4.90;;;1.50;;
62927;SDS011;51070;52.236;-0.892;2023-01-26T02:33:16;8.10;;;2.00;;
62927;SDS011;51070;52.236;-0.892;2023-01-26T02:35:42;7.20;;;1.80;;
62927;SDS011;51070;52.236;-0.892;2023-01-26T02:38:08;5.80;;;1.30;;
62927;SDS011;51070;52.236;-0.892;2023-01-26T02:43:12;6.70;;;2.00;;
62927;SDS011;51070;52.236;-0.892;2023-01-26T02:45:39;8.90;;;2.10;;
62927;SDS011;51070;52.236;-0.892;2023-01-26T02:48:05;4.00;;;1.60;;
62927;SDS011;51070;52.236;-0.892;2023-01-26T02:50:32;3.70;;;1.60;;
62927;SDS011;51070;52.236;-0.892;2023-01-26T02:52:58;6.80;;;2.50;;
62927;SDS011;51070;52.236;-0.892;2023-01-26T02:55:23;5.00;;;1.90;;
62927;SDS011;51070;52.236;-0.892;2023-01-26T02:57:54;8.70;;;1.80;;
62927;SDS011;51070;52.236;-0.892;2023-01-26T03:00:23;7.60;;;2.20;;
62927;SDS011;51070;52.236;-0.892;2023-01-26T03:02:54;3.20;;;1.50;;
62927;SDS011;51070;52.236;-0.892;2023-01-26T03:05:21;5.20;;;1.70;;
62927;SDS011;51070;52.236;-0.892;2023-01-26T03:07:47;5.00;;;1.60;;
62927;SDS011;51070;52.236;-0.892;2023-01-26T03:10:12;4.00;;;1.70;;
62927;SDS011;51070;52.236;-0.892;2023-01-26T03:12:40;5.40;;;1.50;;
62927;SDS011;51070;52.236;-0.892;2023-01-26T03:15:06;4.10;;;2.20;;
62927;SDS011;51070;52.236;-0.892;2023-01-26T03:17:51;11.60;;;2.00;;
62927;SDS011;51070;52.236;-0.892;2023-01-26T03:20:37;6.00;;;1.50;;
62927;SDS011;51070;52.236;-0.892;2023-01-26T03:23:21;7.20;;;1.90;;
62927;SDS011;51070;52.236;-0.892;2023-01-26T03:26:19;8.40;;;2.30;;
62927;SDS011;51070;52.236;-0.892;2023-01-26T03:29:03;2.50;;;1.00;;
62927;SDS011;51070;52.236;-0.892;2023-01-26T03:31:29;3.50;;;1.60;;
62927;SDS011;51070;52.236;-0.892;2023-01-26T03:33:54;4.30;;;1.60;;
62927;SDS011;51070;52.236;-0.892;2023-01-26T03:36:19;4.90;;;1.30;;
62927;SDS011;51070;52.236;-0.892;2023-01-26T03:38:45;7.50;;;1.60;;
62927;SDS011;51070;52.236;-0.892;2023-01-26T03:41:11;4.00;;;1.60;;
62927;SDS011;51070;52.236;-0.892;2023-01-26T03:43:56;5.30;;;1.50;;
62927;SDS011;51070;52.236;-0.892;2023-01-26T03:46:40;5.40;;;1.40;;
62927;SDS011;51070;52.236;-0.892;2023-01-26T03:49:24;6.00;;;1.70;;
62927;SDS011;51070;52.236;-0.892;2023-01-26T03:52:08;5.00;;;1.20;;
62927;SDS011;51070;52.236;-0.892;2023-01-26T03:54:52;6.00;;;1.80;;
62927;SDS011;51070;52.236;-0.892;2023-01-26T03:57:36;5.00;;;1.70;;
62927;SDS011;51070;52.236;-0.892;2023-01-26T04:00:02;3.70;;;1.70;;
62927;SDS011;51070;52.236;-0.892;2023-01-26T04:02:28;3.90;;;1.10;;
62927;SDS011;51070;52.236;-0.892;2023-01-26T04:05:12;3.60;;;1.30;;
62927;SDS011;51070;52.236;-0.892;2023-01-26T04:08:00;4.50;;;1.80;;
62927;SDS011;51070;52.236;-0.892;2023-01-26T04:10:48;2.80;;;1.40;;
62927;SDS011;51070;52.236;-0.892;2023-01-26T04:13:18;4.70;;;1.40;;
62927;SDS011;51070;52.236;-0.892;2023-01-26T04:16:03;6.50;;;1.80;;
62927;SDS011;51070;52.236;-0.892;2023-01-26T04:18:48;7.50;;;2.00;;
62927;SDS011;51070;52.236;-0.892;2023-01-26T04:21:32;8.90;;;1.90;;
62927;SDS011;51070;52.236;-0.892;2023-01-26T04:23:59;15.40;;;2.20;;
62927;SDS011;51070;52.236;-0.892;2023-01-26T04:26:26;4.90;;;1.30;;
62927;SDS011;51070;52.236;-0.892;2023-01-26T04:29:09;4.90;;;1.30;;
62927;SDS011;51070;52.236;-0.892;2023-01-26T04:31:36;3.20;;;1.40;;
62927;SDS011;51070;52.236;-0.892;2023-01-26T04:34:05;9.50;;;1.40;;
62927;SDS011;51070;52.236;-0.892;2023-01-26T04:36:31;9.90;;;2.00;;
62927;SDS011;51070;52.236;-0.892;2023-01-26T04:38:57;7.10;;;1.50;;
62927;SDS011;51070;52.236;-0.892;2023-01-26T04:41:22;5.60;;;1.70;;
62927;SDS011;51070;52.236;-0.892;2023-01-26T04:43:49;8.00;;;1.60;;
62927;SDS011;51070;52.236;-0.892;2023-01-26T04:46:14;6.90;;;1.80;;
62927;SDS011;51070;52.236;-0.892;2023-01-26T04:48:40;5.10;;;1.50;;
62927;SDS011;51070;52.236;-0.892;2023-01-26T04:51:08;1.90;;;1.10;;
62927;SDS011;51070;52.236;-0.892;2023-01-26T04:53:38;5.90;;;1.60;;
62927;SDS011;51070;52.236;-0.892;2023-01-26T04:56:04;6.80;;;1.90;;
62927;SDS011;51070;52.236;-0.892;2023-01-26T04:58:31;6.70;;;1.10;;
62927;SDS011;51070;52.236;-0.892;2023-01-26T05:00:57;8.80;;;1.60;;
62927;SDS011;51070;52.236;-0.892;2023-01-26T05:03:23;9.10;;;1.60;;
62927;SDS011;51070;52.236;-0.892;2023-01-26T05:05:51;5.10;;;1.30;;
62927;SDS011;51070;52.236;-0.892;2023-01-26T05:08:18;3.90;;;1.30;;
62927;SDS011;51070;52.236;-0.892;2023-01-26T05:10:47;2.00;;;1.00;;
62927;SDS011;51070;52.236;-0.892;2023-01-26T05:13:13;9.00;;;1.90;;
62927;SDS011;51070;52.236;-0.892;2023-01-26T05:15:39;4.20;;;1.60;;
62927;SDS011;51070;52.236;-0.892;2023-01-26T05:18:05;4.40;;;1.10;;
62927;SDS011;51070;52.236;-0.892;2023-01-26T05:20:31;8.50;;;1.70;;
62927;SDS011;51070;52.236;-0.892;2023-01-26T05:22:57;4.90;;;1.70;;
62927;SDS011;51070;52.236;-0.892;2023-01-26T05:25:23;6.20;;;1.70;;
62927;SDS011;51070;52.236;-0.892;2023-01-26T05:27:49;5.60;;;1.60;;
62927;SDS011;51070;52.236;-0.892;2023-01-26T05:30:15;5.20;;;1.30;;
62927;SDS011;51070;52.236;-0.892;2023-01-26T05:32:41;7.10;;;1.60;;
62927;SDS011;51070;52.236;-0.892;2023-01-26T05:35:06;5.40;;;1.50;;
62927;SDS011;51070;52.236;-0.892;2023-01-26T05:37:32;4.90;;;1.70;;
62927;SDS011;51070;52.236;-0.892;2023-01-26T05:39:58;6.30;;;1.30;;
62927;SDS011;51070;52.236;-0.892;2023-01-26T05:42:23;9.50;;;1.90;;
62927;SDS011;51070;52.236;-0.892;2023-01-26T05:44:49;6.70;;;1.60;;
62927;SDS011;51070;52.236;-0.892;2023-01-26T05:47:15;6.30;;;1.70;;
62927;SDS011;51070;52.236;-0.892;2023-01-26T05:49:40;8.30;;;1.50;;
62927;SDS011;51070;52.236;-0.892;2023-01-26T05:52:11;7.10;;;1.90;;
62927;SDS011;51070;52.236;-0.892;2023-01-26T05:54:39;7.50;;;2.60;;
62927;SDS011;51070;52.236;-0.892;2023-01-26T05:57:04;6.40;;;1.80;;
62927;SDS011;51070;52.236;-0.892;2023-01-26T05:59:30;8.00;;;1.60;;
62927;SDS011;51070;52.236;-0.892;2023-01-26T06:01:56;5.30;;;2.00;;
62927;SDS011;51070;52.236;-0.892;2023-01-26T06:04:22;5.50;;;1.30;;
62927;SDS011;51070;52.236;-0.892;2023-01-26T06:06:47;3.00;;;1.10;;
62927;SDS011;51070;52.236;-0.892;2023-01-26T06:09:13;3.40;;;1.30;;
62927;SDS011;51070;52.236;-0.892;2023-01-26T06:11:38;6.20;;;1.70;;
62927;SDS011;51070;52.236;-0.892;2023-01-26T06:14:04;7.10;;;2.10;;
62927;SDS011;51070;52.236;-0.892;2023-01-26T06:16:29;12.40;;;1.90;;
62927;SDS011;51070;52.236;-0.892;2023-01-26T06:18:54;5.20;;;1.40;;
62927;SDS011;51070;52.236;-0.892;2023-01-26T06:21:20;6.30;;;1.80;;
62927;SDS011;51070;52.236;-0.892;2023-01-26T06:23:46;6.00;;;2.20;;
62927;SDS011;51070;52.236;-0.892;2023-01-26T06:26:11;5.70;;;1.50;;
62927;SDS011;51070;52.236;-0.892;2023-01-26T06:28:37;5.50;;;1.80;;
62927;SDS011;51070;52.236;-0.892;2023-01-26T06:31:02;3.20;;;1.20;;
62927;SDS011;51070;52.236;-0.892;2023-01-26T06:33:30;4.40;;;1.70;;
62927;SDS011;51070;52.236;-0.892;2023-01-26T06:36:06;9.30;;;1.10;;
62927;SDS011;51070;52.236;-0.892;2023-01-26T06:38:36;5.40;;;1.30;;
62927;SDS011;51070;52.236;-0.892;2023-01-26T06:41:04;5.00;;;1.20;;
62927;SDS011;51070;52.236;-0.892;2023-01-26T06:43:31;8.80;;;1.30;;
62927;SDS011;51070;52.236;-0.892;2023-01-26T06:45:58;5.10;;;1.10;;
62927;SDS011;51070;52.236;-0.892;2023-01-26T06:48:25;6.30;;;1.40;;
62927;SDS011;51070;52.236;-0.892;2023-01-26T06:50:51;3.10;;;0.90;;
62927;SDS011;51070;52.236;-0.892;2023-01-26T06:53:32;9.90;;;1.90;;
62927;SDS011;51070;52.236;-0.892;2023-01-26T06:56:07;3.80;;;1.40;;
62927;SDS011;51070;52.236;-0.892;2023-01-26T06:58:33;4.70;;;1.40;;
62927;SDS011;51070;52.236;-0.892;2023-01-26T07:00:58;2.90;;;1.10;;
62927;SDS011;51070;52.236;-0.892;2023-01-26T07:03:24;6.30;;;1.40;;
62927;SDS011;51070;52.236;-0.892;2023-01-26T07:05:50;2.60;;;1.40;;
62927;SDS011;51070;52.236;-0.892;2023-01-26T07:08:16;3.90;;;1.40;;
62927;SDS011;51070;52.236;-0.892;2023-01-26T07:10:41;6.30;;;1.80;;
62927;SDS011;51070;52.236;-0.892;2023-01-26T07:13:07;4.80;;;1.50;;
62927;SDS011;51070;52.236;-0.892;2023-01-26T07:15:32;3.10;;;1.00;;
62927;SDS011;51070;52.236;-0.892;2023-01-26T07:17:58;3.50;;;1.00;;
62927;SDS011;51070;52.236;-0.892;2023-01-26T07:20:24;3.00;;;0.70;;
62927;SDS011;51070;52.236;-0.892;2023-01-26T07:22:50;5.60;;;1.10;;
62927;SDS011;51070;52.236;-0.892;2023-01-26T07:25:16;5.60;;;1.70;;
62927;SDS011;51070;52.236;-0.892;2023-01-26T07:27:42;6.00;;;1.80;;
62927;SDS011;51070;52.236;-0.892;2023-01-26T07:30:08;2.70;;;1.20;;
62927;SDS011;51070;52.236;-0.892;2023-01-26T07:32:35;3.20;;;1.10;;
62927;SDS011;51070;52.236;-0.892;2023-01-26T07:35:00;5.10;;;1.20;;
62927;SDS011;51070;52.236;-0.892;2023-01-26T07:37:26;3.40;;;1.40;;
62927;SDS011;51070;52.236;-0.892;2023-01-26T07:39:52;6.40;;;1.30;;
62927;SDS011;51070;52.236;-0.892;2023-01-26T07:42:18;4.80;;;1.40;;
62927;SDS011;51070;52.236;-0.892;2023-01-26T07:44:43;3.40;;;1.00;;
62927;SDS011;51070;52.236;-0.892;2023-01-26T07:47:08;5.30;;;1.30;;
62927;SDS011;51070;52.236;-0.892;2023-01-26T07:49:34;9.20;;;1.90;;
62927;SDS011;51070;52.236;-0.892;2023-01-26T07:51:59;7.10;;;1.40;;
62927;SDS011;51070;52.236;-0.892;2023-01-26T07:54:24;8.60;;;2.00;;
62927;SDS011;51070;52.236;-0.892;2023-01-26T07:56:53;5.40;;;1.70;;
62927;SDS011;51070;52.236;-0.892;2023-01-26T07:59:19;4.70;;;1.50;;
62927;SDS011;51070;52.236;-0.892;2023-01-26T08:01:47;3.10;;;1.30;;
62927;SDS011;51070;52.236;-0.892;2023-01-26T08:04:13;4.00;;;1.10;;
62927;SDS011;51070;52.236;-0.892;2023-01-26T08:06:39;3.30;;;1.40;;
62927;SDS011;51070;52.236;-0.892;2023-01-26T08:09:04;6.30;;;1.50;;
62927;SDS011;51070;52.236;-0.892;2023-01-26T08:11:29;6.80;;;1.80;;
62927;SDS011;51070;52.236;-0.892;2023-01-26T08:13:55;4.70;;;1.60;;
62927;SDS011;51070;52.236;-0.892;2023-01-26T08:16:20;3.90;;;1.60;;
62927;SDS011;51070;52.236;-0.892;2023-01-26T08:18:46;5.60;;;1.90;;
62927;SDS011;51070;52.236;-0.892;2023-01-26T08:21:13;4.60;;;1.50;;
62927;SDS011;51070;52.236;-0.892;2023-01-26T08:23:40;3.80;;;1.10;;
62927;SDS011;51070;52.236;-0.892;2023-01-26T08:26:07;5.10;;;1.60;;
62927;SDS011;51070;52.236;-0.892;2023-01-26T08:28:35;7.00;;;2.40;;
62927;SDS011;51070;52.236;-0.892;2023-01-26T08:31:08;9.70;;;3.20;;
62927;SDS011;51070;52.236;-0.892;2023-01-26T08:33:36;9.40;;;4.70;;
62927;SDS011;51070;52.236;-0.892;2023-01-26T08:36:03;10.00;;;5.00;;
62927;SDS011;51070;52.236;-0.892;2023-01-26T08:38:31;20.30;;;10.60;;
62927;SDS011;51070;52.236;-0.892;2023-01-26T08:40:58;20.40;;;11.00;;
62927;SDS011;51070;52.236;-0.892;2023-01-26T08:43:24;18.50;;;8.60;;
62927;SDS011;51070;52.236;-0.892;2023-01-26T08:45:50;25.30;;;9.60;;
62927;SDS011;51070;52.236;-0.892;2023-01-26T08:48:15;14.00;;;7.20;;
62927;SDS011;51070;52.236;-0.892;2023-01-26T08:50:41;10.10;;;5.00;;
62927;SDS011;51070;52.236;-0.892;2023-01-26T08:53:06;8.50;;;4.10;;
62927;SDS011;51070;52.236;-0.892;2023-01-26T08:55:31;10.30;;;5.30;;
62927;SDS011;51070;52.236;-0.892;2023-01-26T08:57:59;8.90;;;4.70;;
62927;SDS011;51070;52.236;-0.892;2023-01-26T09:00:25;6.50;;;3.20;;
62927;SDS011;51070;52.236;-0.892;2023-01-26T09:02:56;14.10;;;4.20;;
62927;SDS011;51070;52.236;-0.892;2023-01-26T09:05:24;8.50;;;3.40;;
62927;SDS011;51070;52.236;-0.892;2023-01-26T09:07:49;7.20;;;3.60;;
62927;SDS011;51070;52.236;-0.892;2023-01-26T09:10:15;11.30;;;3.90;;
62927;SDS011;51070;52.236;-0.892;2023-01-26T09:12:40;9.40;;;3.60;;
62927;SDS011;51070;52.236;-0.892;2023-01-26T09:15:06;8.30;;;2.60;;
62927;SDS011;51070;52.236;-0.892;2023-01-26T09:17:32;5.60;;;2.40;;
62927;SDS011;51070;52.236;-0.892;2023-01-26T09:19:58;9.50;;;2.60;;
62927;SDS011;51070;52.236;-0.892;2023-01-26T09:22:23;9.50;;;3.60;;
62927;SDS011;51070;52.236;-0.892;2023-01-26T09:24:49;11.70;;;3.90;;
62927;SDS011;51070;52.236;-0.892;2023-01-26T09:27:14;7.40;;;2.60;;
62927;SDS011;51070;52.236;-0.892;2023-01-26T09:29:39;9.70;;;2.60;;
62927;SDS011;51070;52.236;-0.892;2023-01-26T09:32:05;10.80;;;3.30;;
62927;SDS011;51070;52.236;-0.892;2023-01-26T09:34:30;9.40;;;2.80;;
62927;SDS011;51070;52.236;-0.892;2023-01-26T09:36:55;6.50;;;2.20;;
62927;SDS011;51070;52.236;-0.892;2023-01-26T09:39:21;3.40;;;2.40;;
62927;SDS011;51070;52.236;-0.892;2023-01-26T09:42:10;3.50;;;1.90;;
62927;SDS011;51070;52.236;-0.892;2023-01-26T09:44:42;6.60;;;2.10;;
62927;SDS011;51070;52.236;-0.892;2023-01-26T09:47:29;5.60;;;1.80;;
62927;SDS011;51070;52.236;-0.892;2023-01-26T09:50:09;4.40;;;1.60;;
62927;SDS011;51070;52.236;-0.892;2023-01-26T09:52:42;4.80;;;1.40;;
62927;SDS011;51070;52.236;-0.892;2023-01-26T09:55:18;5.50;;;1.60;;
62927;SDS011;51070;52.236;-0.892;2023-01-26T09:57:50;8.00;;;2.20;;
62927;SDS011;51070;52.236;-0.892;2023-01-26T10:08:49;10.00;;;2.20;;
62927;SDS011;51070;52.236;-0.892;2023-01-26T10:13:55;7.20;;;2.20;;
62927;SDS011;51070;52.236;-0.892;2023-01-26T10:16:25;4.00;;;1.70;;
62927;SDS011;51070;52.236;-0.892;2023-01-26T10:19:04;8.10;;;2.00;;
62927;SDS011;51070;52.236;-0.892;2023-01-26T10:21:37;3.00;;;1.10;;
62927;SDS011;51070;52.236;-0.892;2023-01-26T10:24:08;7.30;;;2.10;;
62927;SDS011;51070;52.236;-0.892;2023-01-26T10:26:36;8.40;;;2.60;;
62927;SDS011;51070;52.236;-0.892;2023-01-26T10:29:01;6.70;;;1.90;;
62927;SDS011;51070;52.236;-0.892;2023-01-26T10:31:32;6.00;;;1.80;;
62927;SDS011;51070;52.236;-0.892;2023-01-26T10:36:27;8.60;;;2.10;;
62927;SDS011;51070;52.236;-0.892;2023-01-26T10:38:54;4.90;;;2.00;;
62927;SDS011;51070;52.236;-0.892;2023-01-26T10:41:28;7.90;;;2.20;;
62927;SDS011;51070;52.236;-0.892;2023-01-26T10:46:29;9.90;;;2.30;;
62927;SDS011;51070;52.236;-0.892;2023-01-26T10:48:58;5.30;;;1.80;;
62927;SDS011;51070;52.236;-0.892;2023-01-26T10:51:28;6.70;;;1.80;;
62927;SDS011;51070;52.236;-0.892;2023-01-26T10:56:43;6.10;;;1.90;;
62927;SDS011;51070;52.236;-0.892;2023-01-26T10:59:14;8.00;;;2.60;;
62927;SDS011;51070;52.236;-0.892;2023-01-26T11:01:56;7.90;;;2.00;;
62927;SDS011;51070;52.236;-0.892;2023-01-26T11:04:24;4.00;;;1.70;;
62927;SDS011;51070;52.236;-0.892;2023-01-26T11:06:50;7.30;;;1.90;;
62927;SDS011;51070;52.236;-0.892;2023-01-26T11:09:18;7.90;;;2.70;;
62927;SDS011;51070;52.236;-0.892;2023-01-26T11:11:57;10.60;;;2.40;;
62927;SDS011;51070;52.236;-0.892;2023-01-26T11:14:24;5.80;;;1.90;;
62927;SDS011;51070;52.236;-0.892;2023-01-26T11:22:37;6.40;;;2.40;;
62927;SDS011;51070;52.236;-0.892;2023-01-26T11:28:10;7.00;;;2.90;;
62927;SDS011;51070;52.236;-0.892;2023-01-26T11:39:27;5.90;;;1.80;;
62927;SDS011;51070;52.236;-0.892;2023-01-26T11:53:03;4.90;;;2.00;;
62927;SDS011;51070;52.236;-0.892;2023-01-26T12:00:43;10.40;;;1.90;;
62927;SDS011;51070;52.236;-0.892;2023-01-26T12:06:15;8.60;;;2.10;;
62927;SDS011;51070;52.236;-0.892;2023-01-26T12:19:27;11.00;;;2.40;;
62927;SDS011;51070;52.236;-0.892;2023-01-26T12:22:12;10.90;;;2.10;;
62927;SDS011;51070;52.236;-0.892;2023-01-26T12:24:53;7.70;;;1.70;;
62927;SDS011;51070;52.236;-0.892;2023-01-26T12:27:28;8.70;;;2.20;;
62927;SDS011;51070;52.236;-0.892;2023-01-26T12:32:52;9.90;;;2.40;;
62927;SDS011;51070;52.236;-0.892;2023-01-26T12:35:26;9.30;;;2.60;;
62927;SDS011;51070;52.236;-0.892;2023-01-26T12:38:02;8.70;;;2.60;;
62927;SDS011;51070;52.236;-0.892;2023-01-26T12:40:35;9.30;;;3.10;;
62927;SDS011;51070;52.236;-0.892;2023-01-26T12:43:18;6.40;;;2.30;;
62927;SDS011;51070;52.236;-0.892;2023-01-26T12:45:58;8.70;;;2.50;;
62927;SDS011;51070;52.236;-0.892;2023-01-26T12:51:15;6.10;;;2.60;;
62927;SDS011;51070;52.236;-0.892;2023-01-26T12:53:48;6.50;;;3.10;;
62927;SDS011;51070;52.236;-0.892;2023-01-26T12:56:56;12.30;;;4.50;;
62927;SDS011;51070;52.236;-0.892;2023-01-26T13:01:56;8.50;;;2.70;;
62927;SDS011;51070;52.236;-0.892;2023-01-26T13:04:22;7.00;;;2.60;;
62927;SDS011;51070;52.236;-0.892;2023-01-26T13:07:02;9.00;;;2.40;;
62927;SDS011;51070;52.236;-0.892;2023-01-26T13:10:06;10.10;;;2.20;;
62927;SDS011;51070;52.236;-0.892;2023-01-26T13:15:27;8.20;;;2.50;;
62927;SDS011;51070;52.236;-0.892;2023-01-26T13:17:55;7.50;;;2.30;;
62927;SDS011;51070;52.236;-0.892;2023-01-26T13:22:47;6.30;;;1.60;;
62927;SDS011;51070;52.236;-0.892;2023-01-26T13:25:30;6.40;;;2.60;;
62927;SDS011;51070;52.236;-0.892;2023-01-26T13:27:59;11.40;;;2.10;;
62927;SDS011;51070;52.236;-0.892;2023-01-26T13:35:24;6.10;;;2.10;;
62927;SDS011;51070;52.236;-0.892;2023-01-26T13:40:48;11.30;;;2.40;;
62927;SDS011;51070;52.236;-0.892;2023-01-26T13:43:19;5.10;;;2.20;;
62927;SDS011;51070;52.236;-0.892;2023-01-26T13:48:26;4.80;;;1.90;;
62927;SDS011;51070;52.236;-0.892;2023-01-26T13:51:00;9.60;;;2.30;;
62927;SDS011;51070;52.236;-0.892;2023-01-26T13:53:34;8.30;;;1.90;;
62927;SDS011;51070;52.236;-0.892;2023-01-26T13:56:03;8.40;;;2.00;;
62927;SDS011;51070;52.236;-0.892;2023-01-26T13:58:30;5.70;;;1.80;;
62927;SDS011;51070;52.236;-0.892;2023-01-26T14:01:00;6.40;;;1.80;;
62927;SDS011;51070;52.236;-0.892;2023-01-26T14:03:31;7.40;;;1.80;;
62927;SDS011;51070;52.236;-0.892;2023-01-26T14:06:01;8.00;;;2.40;;
62927;SDS011;51070;52.236;-0.892;2023-01-26T14:08:39;5.70;;;1.80;;
62927;SDS011;51070;52.236;-0.892;2023-01-26T14:11:15;8.30;;;2.40;;
62927;SDS011;51070;52.236;-0.892;2023-01-26T14:13:45;9.80;;;2.20;;
62927;SDS011;51070;52.236;-0.892;2023-01-26T14:16:21;8.70;;;2.80;;
62927;SDS011;51070;52.236;-0.892;2023-01-26T14:18:49;7.20;;;2.60;;
62927;SDS011;51070;52.236;-0.892;2023-01-26T14:21:24;6.40;;;2.40;;
62927;SDS011;51070;52.236;-0.892;2023-01-26T14:23:54;9.10;;;3.20;;
62927;SDS011;51070;52.236;-0.892;2023-01-26T14:26:23;7.90;;;3.00;;
62927;SDS011;51070;52.236;-0.892;2023-01-26T14:28:55;10.90;;;2.70;;
62927;SDS011;51070;52.236;-0.892;2023-01-26T14:31:22;9.60;;;2.60;;
62927;SDS011;51070;52.236;-0.892;2023-01-26T14:33:51;7.30;;;2.40;;
62927;SDS011;51070;52.236;-0.892;2023-01-26T14:36:21;9.90;;;2.50;;
62927;SDS011;51070;52.236;-0.892;2023-01-26T14:38:49;11.00;;;3.10;;
62927;SDS011;51070;52.236;-0.892;2023-01-26T14:41:26;10.00;;;3.60;;
62927;SDS011;51070;52.236;-0.892;2023-01-26T14:43:56;10.50;;;2.50;;
62927;SDS011;51070;52.236;-0.892;2023-01-26T14:46:45;6.60;;;2.20;;
62927;SDS011;51070;52.236;-0.892;2023-01-26T14:49:30;8.30;;;3.10;;
62927;SDS011;51070;52.236;-0.892;2023-01-26T14:52:14;11.70;;;2.90;;
62927;SDS011;51070;52.236;-0.892;2023-01-26T14:54:45;6.30;;;2.30;;
62927;SDS011;51070;52.236;-0.892;2023-01-26T14:57:15;8.20;;;2.30;;
62927;SDS011;51070;52.236;-0.892;2023-01-26T14:59:55;11.30;;;2.10;;
62927;SDS011;51070;52.236;-0.892;2023-01-26T15:02:41;7.30;;;2.20;;
62927;SDS011;51070;52.236;-0.892;2023-01-26T15:05:10;7.90;;;1.80;;
62927;SDS011;51070;52.236;-0.892;2023-01-26T15:07:42;5.20;;;2.00;;
62927;SDS011;51070;52.236;-0.892;2023-01-26T15:13:23;6.80;;;1.90;;
62927;SDS011;51070;52.236;-0.892;2023-01-26T15:16:02;7.70;;;2.60;;
62927;SDS011;51070;52.236;-0.892;2023-01-26T15:18:30;4.90;;;1.90;;
62927;SDS011;51070;52.236;-0.892;2023-01-26T15:20:59;5.00;;;1.80;;
62927;SDS011;51070;52.236;-0.892;2023-01-26T15:23:35;9.40;;;2.30;;
62927;SDS011;51070;52.236;-0.892;2023-01-26T15:26:09;9.70;;;2.50;;
62927;SDS011;51070;52.236;-0.892;2023-01-26T15:28:52;5.00;;;2.00;;
62927;SDS011;51070;52.236;-0.892;2023-01-26T15:31:20;7.00;;;2.00;;
62927;SDS011;51070;52.236;-0.892;2023-01-26T15:33:54;16.30;;;2.20;;
62927;SDS011;51070;52.236;-0.892;2023-01-26T15:41:24;6.70;;;1.50;;
62927;SDS011;51070;52.236;-0.892;2023-01-26T15:43:50;5.90;;;2.00;;
62927;SDS011;51070;52.236;-0.892;2023-01-26T15:46:15;4.90;;;1.60;;
62927;SDS011;51070;52.236;-0.892;2023-01-26T15:48:40;5.10;;;1.40;;
62927;SDS011;51070;52.236;-0.892;2023-01-26T15:51:10;4.80;;;1.50;;
62927;SDS011;51070;52.236;-0.892;2023-01-26T15:53:37;6.40;;;1.90;;
62927;SDS011;51070;52.236;-0.892;2023-01-26T15:56:03;9.90;;;1.90;;
62927;SDS011;51070;52.236;-0.892;2023-01-26T15:58:28;4.10;;;1.90;;
62927;SDS011;51070;52.236;-0.892;2023-01-26T16:00:55;11.40;;;2.10;;
62927;SDS011;51070;52.236;-0.892;2023-01-26T16:03:22;4.90;;;1.80;;
62927;SDS011;51070;52.236;-0.892;2023-01-26T16:05:47;3.00;;;1.70;;
62927;SDS011;51070;52.236;-0.892;2023-01-26T16:08:16;5.90;;;2.20;;
62927;SDS011;51070;52.236;-0.892;2023-01-26T16:10:42;8.60;;;2.00;;
62927;SDS011;51070;52.236;-0.892;2023-01-26T16:13:11;7.40;;;2.40;;
62927;SDS011;51070;52.236;-0.892;2023-01-26T16:15:42;15.20;;;2.30;;
62927;SDS011;51070;52.236;-0.892;2023-01-26T16:18:09;4.40;;;1.70;;
62927;SDS011;51070;52.236;-0.892;2023-01-26T16:20:36;6.60;;;1.60;;
62927;SDS011;51070;52.236;-0.892;2023-01-26T16:23:25;4.50;;;1.50;;
62927;SDS011;51070;52.236;-0.892;2023-01-26T16:25:50;6.90;;;1.90;;
62927;SDS011;51070;52.236;-0.892;2023-01-26T16:28:16;4.00;;;1.40;;
62927;SDS011;51070;52.236;-0.892;2023-01-26T16:30:43;6.00;;;1.80;;
62927;SDS011;51070;52.236;-0.892;2023-01-26T16:33:13;6.60;;;1.70;;
62927;SDS011;51070;52.236;-0.892;2023-01-26T16:35:40;1.50;;;1.00;;
62927;SDS011;51070;52.236;-0.892;2023-01-26T16:38:06;4.10;;;1.50;;
62927;SDS011;51070;52.236;-0.892;2023-01-26T16:40:42;4.90;;;1.40;;
62927;SDS011;51070;52.236;-0.892;2023-01-26T16:43:18;7.60;;;1.60;;